Time;durP1;ratioP1;P1;durP2;ratioP2;P2;SDS_P1;SDS_P2;PMS_P1;PMS_P2;Temp;Humidity;BMP_temperature;BMP_pressure;BME280_temperature;BME280_humidity;BME280_pressure;Samples;Min_cycle;Max_cycle;Signal;HPM_P1;HPM_P2
2022/05/15 00:00:41;;;;;;;21.73;3.75;;;14.00;99.90;;;;;;4998424;28;20041;-76
2022/05/15 00:03:21;;;;;;;16.77;3.80;;;14.00;99.90;;;;;;5015644;28;20057;-76
2022/05/15 00:05:55;;;;;;;18.90;4.00;;;14.00;99.90;;;;;;5014713;28;20046;-77
2022/05/15 00:08:23;;;;;;;524.15;21.95;;;14.00;99.90;;;;;;5015656;28;20057;-76
2022/05/15 00:10:52;;;;;;;12.25;3.17;;;14.00;99.90;;;;;;5014387;28;20057;-77
2022/05/15 00:13:20;;;;;;;18.40;4.13;;;14.00;99.90;;;;;;5016133;28;20041;-75
2022/05/15 00:15:51;;;;;;;17.98;3.65;;;14.00;99.90;;;;;;5015525;28;20060;-75
2022/05/15 00:18:21;;;;;;;18.23;4.05;;;13.90;99.90;;;;;;5014275;28;20041;-77
2022/05/15 00:20:50;;;;;;;21.90;4.22;;;13.90;99.90;;;;;;5015525;28;20042;-76
2022/05/15 00:23:19;;;;;;;14.63;4.20;;;13.90;99.90;;;;;;5015553;28;20444;-76
2022/05/15 00:25:47;;;;;;;21.02;4.18;;;13.90;99.90;;;;;;5014026;28;20057;-76
2022/05/15 00:28:14;;;;;;;20.33;4.38;;;13.90;99.90;;;;;;5015179;28;20049;-76
2022/05/15 00:30:42;;;;;;;20.83;5.13;;;13.90;99.90;;;;;;5015592;28;20500;-76
2022/05/15 00:33:10;;;;;;;16.65;4.40;;;13.90;99.90;;;;;;4998007;28;20061;-75
2022/05/15 00:35:38;;;;;;;23.60;4.47;;;13.90;99.90;;;;;;5015121;28;20046;-75
2022/05/15 00:38:08;;;;;;;17.90;4.30;;;13.90;99.90;;;;;;4997027;28;20473;-78
2022/05/15 00:40:39;;;;;;;21.33;4.45;;;13.90;99.90;;;;;;5015556;28;20064;-76
2022/05/15 00:43:38;;;;;;;19.02;4.13;;;14.00;99.90;;;;;;5015094;28;20042;-75
2022/05/15 00:46:10;;;;;;;23.83;4.40;;;14.00;99.90;;;;;;5013834;28;20061;-75
2022/05/15 00:48:38;;;;;;;18.92;4.38;;;14.00;99.90;;;;;;4997818;28;20046;-75
2022/05/15 00:51:15;;;;;;;17.17;4.10;;;14.00;99.90;;;;;;5014093;28;20057;-75
2022/05/15 00:53:44;;;;;;;18.42;4.18;;;14.00;99.90;;;;;;5014881;28;20122;-76
2022/05/15 00:56:12;;;;;;;20.05;4.15;;;13.90;99.90;;;;;;5014987;28;20046;-76
2022/05/15 00:58:46;;;;;;;17.33;4.25;;;13.90;99.90;;;;;;4996440;28;20050;-75
2022/05/15 01:01:17;;;;;;;20.10;4.40;;;13.90;99.90;;;;;;4997666;28;20046;-75
2022/05/15 01:03:46;;;;;;;26.05;4.45;;;13.90;99.90;;;;;;4997836;28;20042;-75
2022/05/15 01:06:13;;;;;;;;;;;14.00;99.90;;;;;;4998958;28;20044;-76
2022/05/15 01:08:41;;;;;;;16.98;4.15;;;14.00;99.90;;;;;;5001800;28;19993;-76
2022/05/15 01:11:13;;;;;;;21.75;4.25;;;14.00;99.90;;;;;;5000723;28;20069;-75
2022/05/15 01:13:43;;;;;;;17.50;4.75;;;14.10;99.90;;;;;;5002310;28;20053;-76
2022/05/15 01:16:13;;;;;;;20.17;4.93;;;14.10;99.90;;;;;;5001973;28;20358;-76
2022/05/15 01:18:43;;;;;;;21.30;5.53;;;14.10;99.90;;;;;;5000420;28;20469;-75
2022/05/15 01:21:33;;;;;;;21.27;4.60;;;14.10;99.90;;;;;;5001494;28;20042;-76
2022/05/15 01:24:04;;;;;;;18.75;4.38;;;14.10;99.90;;;;;;5018834;28;20041;-75
2022/05/15 01:26:34;;;;;;;21.63;4.40;;;14.10;99.90;;;;;;5001760;28;20045;-76
2022/05/15 01:29:04;;;;;;;21.10;4.88;;;14.10;99.90;;;;;;4985588;28;20041;-75
2022/05/15 01:31:33;;;;;;;19.65;4.22;;;14.10;99.90;;;;;;5000180;28;20461;-74
2022/05/15 01:34:04;;;;;;;15.98;4.65;;;14.10;99.90;;;;;;5001464;28;20468;-75
2022/05/15 01:36:33;;;;;;;24.75;5.15;;;14.00;99.90;;;;;;5001304;28;20515;-75
2022/05/15 01:39:04;;;;;;;26.60;5.47;;;14.00;99.90;;;;;;5000422;28;20049;-75
2022/05/15 01:41:32;;;;;;;23.58;5.53;;;13.90;99.90;;;;;;5001236;28;20065;-74
2022/05/15 01:44:00;;;;;;;24.98;5.60;;;13.80;99.90;;;;;;5001101;28;20046;-75
2022/05/15 01:46:29;;;;;;;27.15;5.70;;;13.70;99.90;;;;;;5000570;28;20042;-74
2022/05/15 01:49:06;;;;;;;24.33;5.88;;;13.60;99.90;;;;;;5001086;28;20038;-76
2022/05/15 01:51:39;;;;;;;19.00;5.72;;;13.50;99.90;;;;;;5000506;28;20042;-74
2022/05/15 01:54:07;;;;;;;19.75;5.25;;;13.50;99.90;;;;;;5001270;28;20053;-74
2022/05/15 01:56:36;;;;;;;17.05;5.70;;;13.50;99.90;;;;;;5000906;28;20056;-75
2022/05/15 01:59:04;;;;;;;22.52;5.22;;;13.40;99.90;;;;;;4999670;28;20472;-75
2022/05/15 02:01:33;;;;;;;22.45;5.82;;;13.30;99.90;;;;;;5001005;28;20361;-75
2022/05/15 02:04:02;;;;;;;23.45;5.85;;;13.20;99.90;;;;;;5001071;28;20049;-75
2022/05/15 02:06:30;;;;;;;16.83;5.82;;;13.20;99.90;;;;;;5017872;28;20365;-75
2022/05/15 02:08:58;;;;;;;23.10;5.70;;;13.20;99.90;;;;;;5000592;28;20038;-78
2022/05/15 02:11:26;;;;;;;24.15;5.70;;;13.10;99.90;;;;;;4999600;28;20058;-74
2022/05/15 02:13:54;;;;;;;21.90;5.97;;;13.00;99.90;;;;;;5000706;28;20065;-74
2022/05/15 02:16:21;;;;;;;20.88;6.47;;;13.00;99.90;;;;;;5017575;28;20049;-75
2022/05/15 02:18:49;;;;;;;25.73;6.32;;;13.00;99.90;;;;;;5016671;28;20061;-74
2022/05/15 02:21:17;;;;;;;22.10;5.95;;;12.90;99.90;;;;;;5000768;28;20046;-75
2022/05/15 02:23:45;;;;;;;20.23;5.60;;;12.90;99.90;;;;;;5017652;28;20038;-75
2022/05/15 02:26:14;;;;;;;22.10;6.25;;;12.80;99.90;;;;;;5016230;28;20457;-75
2022/05/15 02:28:41;;;;;;;23.13;6.47;;;12.80;99.90;;;;;;5000319;28;20045;-75
2022/05/15 02:31:10;;;;;;;22.35;6.35;;;12.90;99.90;;;;;;4999142;28;20046;-74
2022/05/15 02:33:37;;;;;;;27.05;6.22;;;12.90;99.90;;;;;;5017422;28;20049;-75
2022/05/15 02:36:05;;;;;;;15.65;5.35;;;12.90;99.90;;;;;;4984262;28;20049;-75
2022/05/15 02:38:35;;;;;;;19.58;5.80;;;13.00;99.90;;;;;;4999079;28;20469;-75
2022/05/15 02:41:03;;;;;;;21.63;5.65;;;13.00;99.90;;;;;;4999934;28;20050;-74
2022/05/15 02:43:30;;;;;;;;;;;13.00;99.90;;;;;;5000475;28;20049;-75
2022/05/15 02:45:58;;;;;;;19.02;5.75;;;13.00;99.90;;;;;;4998820;28;19921;-76
2022/05/15 02:51:15;;;;;;;24.92;5.47;;;13.00;99.90;;;;;;4999032;28;20046;-75
2022/05/15 02:53:45;;;;;;;19.55;5.22;;;13.00;99.90;;;;;;5016912;28;20465;-74
2022/05/15 02:56:17;;;;;;;20.83;5.65;;;13.10;99.90;;;;;;5000220;28;20504;-75
2022/05/15 02:58:45;;;;;;;19.23;5.53;;;13.10;99.90;;;;;;5016287;28;20049;-75
2022/05/15 03:01:13;;;;;;;22.08;5.45;;;13.10;99.90;;;;;;4999894;28;20042;-75
2022/05/15 03:03:41;;;;;;;31.65;6.07;;;13.10;99.90;;;;;;5000444;28;20046;-75
2022/05/15 03:06:10;;;;;;;18.50;5.18;;;13.10;99.90;;;;;;4998617;28;20053;-75
2022/05/15 03:08:41;;;;;;;23.33;5.88;;;13.10;99.90;;;;;;4999726;28;20057;-75
2022/05/15 03:11:09;;;;;;;20.05;5.18;;;13.20;99.90;;;;;;5015632;28;20046;-74
2022/05/15 03:13:37;;;;;;;;;;;13.20;99.90;;;;;;4999786;28;20041;-74
2022/05/15 03:16:06;;;;;;;16.20;5.43;;;13.20;99.90;;;;;;4999706;28;19928;-75
2022/05/15 03:18:40;;;;;;;29.85;5.82;;;13.20;99.90;;;;;;5015254;28;20515;-75
2022/05/15 03:21:08;;;;;;;23.08;5.47;;;13.20;99.90;;;;;;5016887;28;20038;-75
2022/05/15 03:23:36;;;;;;;24.20;5.82;;;13.30;99.90;;;;;;4999201;28;20042;-75
2022/05/15 03:26:04;;;;;;;20.52;5.40;;;13.30;99.90;;;;;;4998115;28;20042;-75
2022/05/15 03:28:32;;;;;;;17.33;5.18;;;13.30;99.90;;;;;;5015935;28;20046;-75
2022/05/15 03:30:59;;;;;;;17.73;5.20;;;13.30;99.90;;;;;;4997914;28;20492;-76
2022/05/15 03:33:27;;;;;;;20.48;5.47;;;13.40;99.90;;;;;;4999159;28;20469;-75
2022/05/15 03:35:55;;;;;;;17.02;5.28;;;13.40;99.90;;;;;;4999537;28;20049;-75
2022/05/15 03:38:22;;;;;;;19.45;5.13;;;13.40;99.90;;;;;;5015053;28;20050;-75
2022/05/15 03:40:50;;;;;;;13.98;4.68;;;13.40;99.90;;;;;;4999085;28;20365;-75
2022/05/15 03:43:17;;;;;;;21.13;4.93;;;13.40;99.90;;;;;;4999114;28;20042;-75
2022/05/15 03:45:45;;;;;;;18.80;5.22;;;13.40;99.90;;;;;;4997769;28;20037;-75
2022/05/15 03:48:13;;;;;;;24.13;4.95;;;13.40;99.90;;;;;;5016054;28;20057;-76
2022/05/15 03:50:40;;;;;;;20.80;4.63;;;13.40;99.90;;;;;;5016013;28;20050;-74
2022/05/15 03:53:08;;;;;;;16.42;4.80;;;13.40;99.90;;;;;;4998390;28;20046;-75
2022/05/15 03:55:36;;;;;;;20.98;4.85;;;13.50;99.90;;;;;;5014811;28;20057;-74
2022/05/15 03:58:04;;;;;;;22.65;4.90;;;13.50;99.90;;;;;;4997749;28;20052;-75
2022/05/15 04:00:34;;;;;;;18.80;5.43;;;13.50;99.90;;;;;;5016282;28;20045;-75
2022/05/15 04:03:02;;;;;;;20.95;5.20;;;13.50;99.90;;;;;;5015646;28;20045;-75
2022/05/15 04:05:29;;;;;;;19.05;5.15;;;13.50;99.90;;;;;;5014623;28;20046;-75
2022/05/15 04:07:57;;;;;;;18.15;4.80;;;13.50;99.90;;;;;;5015561;28;20050;-75
2022/05/15 04:10:26;;;;;;;17.23;4.78;;;13.60;99.90;;;;;;5015724;28;20050;-75
2022/05/15 04:12:53;;;;;;;16.58;4.80;;;13.60;99.90;;;;;;4997258;28;20046;-75
2022/05/15 04:15:21;;;;;;;17.10;4.57;;;13.60;99.90;;;;;;4998335;28;20042;-75
2022/05/15 04:17:50;;;;;;;18.55;4.80;;;13.60;99.90;;;;;;4997513;28;20056;-75
2022/05/15 04:20:21;;;;;;;15.23;4.68;;;13.60;99.90;;;;;;4998375;28;20038;-75
2022/05/15 04:22:50;;;;;;;17.58;4.72;;;13.60;99.90;;;;;;4998130;28;20053;-75
2022/05/15 04:25:19;;;;;;;15.52;4.82;;;13.60;99.90;;;;;;4997395;28;20061;-74
2022/05/15 04:27:47;;;;;;;16.38;5.07;;;13.60;99.90;;;;;;4998172;28;20054;-75
2022/05/15 04:30:17;;;;;;;;;;;13.60;99.90;;;;;;5015646;28;20456;-75
2022/05/15 04:32:45;;;;;;;17.92;5.45;;;13.60;99.90;;;;;;4997219;28;19936;-75
2022/05/15 04:35:13;;;;;;;21.63;5.80;;;13.70;99.90;;;;;;4998055;28;20056;-75
2022/05/15 04:37:40;;;;;;;16.00;5.22;;;13.70;99.90;;;;;;5014036;28;20054;-75
2022/05/15 04:40:09;;;;;;;24.80;5.32;;;13.70;99.90;;;;;;5014316;28;20050;-75
2022/05/15 04:42:38;;;;;;;23.73;5.45;;;13.70;99.90;;;;;;5015260;28;20041;-75
2022/05/15 04:45:06;;;;;;;20.17;5.65;;;13.70;99.90;;;;;;5013117;28;20050;-75
2022/05/15 04:47:34;;;;;;;22.83;6.20;;;13.70;99.90;;;;;;5015239;28;20049;-75
2022/05/15 04:50:02;;;;;;;24.98;5.82;;;13.70;99.90;;;;;;5014960;28;20046;-75
2022/05/15 04:52:30;;;;;;;18.55;5.93;;;13.70;99.90;;;;;;5013912;28;20061;-75
2022/05/15 04:54:57;;;;;;;24.25;5.80;;;13.70;99.90;;;;;;5014965;28;20050;-76
2022/05/15 04:57:25;;;;;;;24.33;5.93;;;13.70;99.90;;;;;;5014287;28;20045;-75
2022/05/15 04:59:52;;;;;;;23.25;5.65;;;13.70;99.90;;;;;;5015046;28;20456;-77
2022/05/15 05:02:20;;;;;;;22.38;5.93;;;13.80;99.90;;;;;;5015008;28;20049;-75
2022/05/15 05:04:48;;;;;;;27.23;6.60;;;13.80;99.90;;;;;;5013906;28;20050;-75
2022/05/15 05:07:15;;;;;;;21.25;5.40;;;13.80;99.90;;;;;;5014844;28;20037;-75
2022/05/15 05:09:43;;;;;;;25.13;6.35;;;13.80;99.90;;;;;;5014829;28;20065;-75
2022/05/15 05:12:11;;;;;;;28.08;7.03;;;13.80;99.90;;;;;;5014043;28;20050;-75
2022/05/15 05:14:38;;;;;;;28.27;6.53;;;13.80;99.90;;;;;;5014888;28;20053;-76
2022/05/15 05:17:11;;;;;;;24.08;6.78;;;13.80;99.90;;;;;;5014698;28;20368;-75
2022/05/15 05:19:38;;;;;;;24.92;6.63;;;13.80;99.90;;;;;;5013579;28;20342;-75
2022/05/15 05:22:06;;;;;;;29.20;7.25;;;13.80;99.90;;;;;;5014686;28;20357;-76
2022/05/15 05:24:33;;;;;;;31.17;7.20;;;13.80;99.90;;;;;;5013544;28;20053;-75
2022/05/15 05:27:01;;;;;;;19.92;6.90;;;13.80;99.90;;;;;;5014715;28;20060;-75
2022/05/15 05:29:29;;;;;;;31.63;7.57;;;13.80;99.90;;;;;;5014657;28;20045;-75
2022/05/15 05:31:56;;;;;;;24.30;7.53;;;13.80;99.90;;;;;;5013495;28;20050;-74
2022/05/15 05:34:23;;;;;;;24.52;7.88;;;13.80;99.90;;;;;;5014577;28;20064;-75
2022/05/15 05:36:52;;;;;;;26.13;7.65;;;13.80;99.90;;;;;;4997465;28;20499;-75
2022/05/15 05:39:21;;;;;;;22.10;7.20;;;13.90;99.90;;;;;;5013440;28;20046;-75
2022/05/15 05:41:49;;;;;;;27.63;7.80;;;13.90;99.90;;;;;;5014899;28;20053;-75
2022/05/15 05:44:16;;;;;;;26.85;7.88;;;13.90;99.90;;;;;;5012396;28;20049;-75
2022/05/15 05:46:45;;;;;;;27.98;8.00;;;13.90;99.90;;;;;;5014452;28;20049;-75
2022/05/15 05:49:13;;;;;;;29.10;8.15;;;14.00;99.90;;;;;;4997493;28;20046;-74
2022/05/15 05:51:40;;;;;;;31.23;8.30;;;14.00;99.90;;;;;;5014293;28;20057;-74
2022/05/15 05:54:10;;;;;;;26.33;7.60;;;14.10;99.90;;;;;;5018489;28;20057;-75
2022/05/15 05:56:37;;;;;;;26.35;7.60;;;14.20;99.90;;;;;;5018130;28;20372;-75
2022/05/15 05:59:05;;;;;;;33.45;8.38;;;14.20;99.90;;;;;;5016698;28;20041;-75
2022/05/15 06:01:33;;;;;;;32.50;7.97;;;14.30;99.90;;;;;;5018535;28;20345;-75
2022/05/15 06:06:47;;;;;;;29.40;8.35;;;14.40;99.90;;;;;;5018525;28;20046;-75
2022/05/15 06:09:14;;;;;;;38.30;9.20;;;14.40;99.90;;;;;;5018553;28;20346;-75
2022/05/15 06:11:42;;;;;;;30.52;8.98;;;14.50;99.90;;;;;;5016828;28;20057;-74
2022/05/15 06:14:10;;;;;;;27.10;8.77;;;14.50;99.90;;;;;;5018175;28;20058;-75
2022/05/15 06:16:38;;;;;;;32.22;9.30;;;14.50;99.90;;;;;;5017794;28;20046;-75
2022/05/15 06:19:05;;;;;;;24.85;8.45;;;14.50;99.90;;;;;;5016652;28;20061;-75
2022/05/15 06:21:33;;;;;;;25.13;8.15;;;14.50;99.90;;;;;;5017731;28;20042;-74
2022/05/15 06:24:00;;;;;;;25.80;8.60;;;14.50;99.90;;;;;;5017493;28;20049;-75
2022/05/15 06:26:28;;;;;;;27.60;8.48;;;14.50;99.90;;;;;;5016465;28;20046;-76
2022/05/15 06:28:55;;;;;;;34.33;9.57;;;14.50;99.90;;;;;;5017610;28;20369;-76
2022/05/15 06:31:23;;;;;;;31.27;9.70;;;14.50;99.90;;;;;;5016626;28;20042;-75
2022/05/15 06:33:51;;;;;;;35.40;9.88;;;14.50;99.90;;;;;;5017334;28;20117;-76
2022/05/15 06:36:18;;;;;;;32.85;10.00;;;14.50;99.90;;;;;;5017459;28;20484;-76
2022/05/15 06:38:45;;;;;;;32.20;10.40;;;14.60;99.90;;;;;;5016250;28;20058;-76
2022/05/15 06:41:13;;;;;;;42.97;11.43;;;14.60;99.90;;;;;;5017496;28;20050;-75
2022/05/15 06:43:41;;;;;;;39.25;11.65;;;14.70;99.90;;;;;;5017216;28;20042;-75
2022/05/15 06:46:08;;;;;;;39.75;11.88;;;14.70;99.90;;;;;;5016160;28;20464;-75
2022/05/15 06:48:39;;;;;;;32.47;10.95;;;14.80;99.90;;;;;;5017001;28;20046;-75
2022/05/15 06:51:06;;;;;;;40.10;11.93;;;14.90;99.90;;;;;;5016040;28;20042;-74
2022/05/15 06:53:35;;;;;;;39.60;12.00;;;15.10;99.90;;;;;;5016949;28;20050;-75
2022/05/15 06:58:49;;;;;;;36.45;11.88;;;15.30;99.90;;;;;;4998657;28;20080;-76
2022/05/15 07:01:16;;;;;;;37.78;11.27;;;15.50;99.90;;;;;;5017027;28;20064;-75
2022/05/15 07:03:44;;;;;;;39.38;11.27;;;15.60;99.90;;;;;;5015280;28;20045;-77
2022/05/15 07:06:15;;;;;;;38.25;12.30;;;15.60;99.90;;;;;;4998588;28;20065;-76
2022/05/15 07:08:43;;;;;;;32.88;11.85;;;15.70;99.90;;;;;;5016604;28;20046;-76
2022/05/15 07:11:12;;;;;;;36.30;11.90;;;15.80;99.90;;;;;;5015745;28;20042;-77
2022/05/15 07:13:40;;;;;;;42.03;12.23;;;15.90;99.90;;;;;;5016407;28;20362;-76
2022/05/15 07:16:08;;;;;;;34.25;12.45;;;15.90;99.90;;;;;;5016491;28;20362;-78
2022/05/15 07:18:37;;;;;;;38.58;12.75;;;16.00;99.90;;;;;;5015145;28;20049;-75
2022/05/15 07:21:05;;;;;;;35.47;12.65;;;16.00;99.90;;;;;;5016318;28;20049;-78
2022/05/15 07:23:32;;;;;;;42.47;13.25;;;16.10;99.90;;;;;;5016768;28;20053;-76
2022/05/15 07:26:02;;;;;;;41.95;13.02;;;16.10;99.90;;;;;;5015153;28;20038;-78
2022/05/15 07:28:30;;;;;;;44.55;13.73;;;16.20;99.90;;;;;;5016196;28;20057;-76
2022/05/15 07:30:57;;;;;;;36.80;12.93;;;16.30;99.90;;;;;;5015371;28;20038;-76
2022/05/15 07:33:27;;;;;;;41.20;13.02;;;16.30;99.90;;;;;;4998726;28;20046;-76
2022/05/15 07:35:57;;;;;;;42.30;13.93;;;16.40;99.90;;;;;;4998891;28;20069;-77
2022/05/15 07:38:25;;;;;;;38.53;12.93;;;16.50;99.90;;;;;;5015145;28;20042;-77
2022/05/15 07:40:53;;;;;;;42.38;14.00;;;16.60;99.90;;;;;;5015916;28;20049;-77
2022/05/15 07:43:20;;;;;;;48.05;13.80;;;16.60;99.90;;;;;;5015879;28;20049;-77
2022/05/15 07:45:48;;;;;;;46.70;13.30;;;16.70;99.90;;;;;;5015073;28;20492;-78
2022/05/15 07:48:15;;;;;;;40.17;13.77;;;16.70;99.90;;;;;;5015699;28;20046;-80
2022/05/15 07:50:43;;;;;;;41.45;13.57;;;16.70;99.90;;;;;;5015944;28;20038;-76
2022/05/15 07:53:11;;;;;;;41.78;15.00;;;16.80;99.90;;;;;;5015861;28;20392;-77
2022/05/15 07:55:39;;;;;;;38.90;14.50;;;16.80;99.90;;;;;;5015632;28;20057;-78
2022/05/15 07:58:06;;;;;;;41.58;13.32;;;16.80;99.90;;;;;;5014761;28;20068;-78
2022/05/15 08:00:34;;;;;;;42.33;14.63;;;16.90;99.90;;;;;;5015912;28;20045;-78
2022/05/15 08:03:07;;;;;;;32.58;13.68;;;16.90;99.90;;;;;;5015270;28;20038;-75
2022/05/15 08:08:26;;;;;;;39.28;13.90;;;17.00;99.90;;;;;;5016145;28;19925;-76
2022/05/15 08:10:53;;;;;;;38.47;14.27;;;17.00;99.90;;;;;;5015297;28;20419;-77
2022/05/15 08:13:25;;;;;;;41.13;14.90;;;16.90;99.90;;;;;;4998802;28;20053;-75
2022/05/15 08:15:53;;;;;;;39.22;14.32;;;16.90;99.90;;;;;;5015994;28;20449;-77
2022/05/15 08:23:59;;;;;;;50.58;14.90;;;16.70;99.90;;;;;;5015646;28;20046;-76
2022/05/15 08:26:27;;;;;;;45.22;14.38;;;16.70;99.90;;;;;;5014365;28;20068;-75
2022/05/15 08:28:55;;;;;;;47.33;15.05;;;16.80;99.90;;;;;;5015122;28;20050;-77
2022/05/15 08:31:24;;;;;;;;;;;16.80;99.90;;;;;;5014854;28;20038;-77
2022/05/15 08:33:52;;;;;;;37.97;13.95;;;16.90;99.90;;;;;;5015316;28;19921;-76
2022/05/15 08:36:20;;;;;;;44.92;14.52;;;16.90;99.90;;;;;;5015131;28;20473;-76
2022/05/15 08:38:48;;;;;;;;;;;17.00;99.90;;;;;;5014892;28;20465;-77
2022/05/15 08:41:31;;;;;;;43.35;13.52;;;17.10;99.90;;;;;;4998601;28;19921;-75
2022/05/15 08:44:12;;;;;;;42.53;13.40;;;17.10;99.90;;;;;;5014569;28;20038;-76
2022/05/15 08:46:49;;;;;;;40.63;13.63;;;17.20;99.90;;;;;;4998138;28;20050;-77
2022/05/15 08:49:41;;;;;;;37.78;13.52;;;17.20;99.90;;;;;;5014062;28;20392;-75
2022/05/15 08:52:30;;;;;;;42.70;14.18;;;17.20;99.90;;;;;;5013936;28;20045;-76
2022/05/15 08:55:14;;;;;;;39.97;13.20;;;17.20;99.90;;;;;;5015003;28;20064;-77
2022/05/15 08:58:00;;;;;;;40.05;13.55;;;17.30;99.90;;;;;;5013605;28;20078;-74
2022/05/15 09:00:33;;;;;;;38.72;12.98;;;17.40;99.90;;;;;;5015304;28;20044;-76
2022/05/15 09:03:21;;;;;;;44.33;13.10;;;17.60;99.90;;;;;;5015442;28;20042;-75
2022/05/15 09:06:01;;;;;;;41.30;13.40;;;17.70;99.90;;;;;;5014426;28;20373;-77
2022/05/15 09:08:54;;;;;;;41.08;12.98;;;18.00;99.90;;;;;;5015178;28;20050;-78
2022/05/15 09:11:58;;;;;;;42.97;13.40;;;18.20;99.90;;;;;;5014343;28;20057;-76
2022/05/15 09:14:25;;;;;;;33.03;13.15;;;18.50;99.90;;;;;;5015169;28;20052;-77
2022/05/15 09:17:01;;;;;;;44.30;13.48;;;18.60;99.90;;;;;;5015329;28;20504;-80
2022/05/15 09:19:29;;;;;;;35.22;12.55;;;18.60;99.90;;;;;;5014138;28;20045;-78
2022/05/15 09:21:59;;;;;;;37.17;12.88;;;18.60;99.90;;;;;;5014787;28;20046;-76
2022/05/15 09:24:34;;;;;;;38.72;12.98;;;18.70;99.90;;;;;;5013998;28;20100;-77
2022/05/15 09:27:31;;;;;;;41.75;12.63;;;18.70;99.90;;;;;;4999439;28;20368;-75
2022/05/15 09:30:01;;;;;;;33.03;13.07;;;18.80;99.90;;;;;;5006303;28;20046;-75
2022/05/15 09:32:30;;;;;;;40.67;12.85;;;18.90;99.90;;;;;;5017546;28;20380;-76
2022/05/15 09:35:00;;;;;;;35.53;12.23;;;18.90;99.90;;;;;;5018355;28;20053;-75
2022/05/15 09:40:22;;;;;;;38.25;12.57;;;18.90;99.90;;;;;;5018808;28;20350;-76
2022/05/15 09:46:10;;;;;;;35.25;12.52;;;18.90;99.90;;;;;;5017497;28;20046;-76
2022/05/15 09:48:48;;;;;;;35.33;11.90;;;18.90;99.90;;;;;;5008138;28;20046;-76
2022/05/15 09:51:22;;;;;;;;;;;18.90;99.90;;;;;;5018270;28;20038;-75
2022/05/15 09:53:53;;;;;;;31.42;8.68;;;18.80;99.90;;;;;;5018062;28;19922;-73
2022/05/15 09:56:20;;;;;;;29.48;8.77;;;18.80;99.90;;;;;;5018708;28;20058;-75
2022/05/15 09:58:51;;;;;;;24.85;9.13;;;18.80;99.90;;;;;;5017135;28;20046;-75
2022/05/15 10:01:28;;;;;;;27.48;8.25;;;18.70;99.90;;;;;;5017946;28;20054;-75
2022/05/15 10:03:58;;;;;;;23.88;8.20;;;18.60;99.90;;;;;;5018135;28;20527;-77
2022/05/15 10:06:48;;;;;;;29.52;8.18;;;18.40;99.90;;;;;;5016975;28;20061;-78
2022/05/15 10:09:34;;;;;;;23.00;7.85;;;18.20;99.90;;;;;;5018199;28;20046;-76
2022/05/15 10:12:23;;;;;;;29.73;8.30;;;17.90;99.90;;;;;;5016849;28;20520;-78
2022/05/15 10:14:57;;;;;;;29.30;9.15;;;17.70;99.90;;;;;;5011271;28;20335;-79
2022/05/15 10:17:25;;;;;;;22.63;9.02;;;17.60;99.90;;;;;;5017656;28;20484;-79
2022/05/15 10:20:07;;;;;;;33.15;9.52;;;17.40;99.90;;;;;;5017858;28;20060;-79
2022/05/15 10:22:39;;;;;;;28.63;9.93;;;17.20;99.90;;;;;;5000697;28;20054;-77
2022/05/15 10:25:57;;;;;;;31.38;10.77;;;17.10;99.90;;;;;;5016589;28;20042;-79
2022/05/15 10:28:30;;;;;;;31.45;10.65;;;17.00;99.90;;;;;;5017604;28;20046;-80
2022/05/15 10:31:04;;;;;;;28.70;10.63;;;17.00;99.90;;;;;;4996360;28;20042;-81
2022/05/15 10:33:37;;;;;;;33.67;11.30;;;17.00;99.90;;;;;;4999287;28;20050;-78
2022/05/15 10:36:24;;;;;;;35.05;11.57;;;17.00;99.90;;;;;;5017297;28;20495;-79
2022/05/15 10:39:02;;;;;;;28.58;12.35;;;17.00;99.90;;;;;;5015416;28;20042;-77
2022/05/15 10:41:50;;;;;;;36.67;14.20;;;17.10;99.90;;;;;;4996990;28;20053;-83
2022/05/15 10:44:17;;;;;;;;;;;17.10;99.90;;;;;;5007076;28;20073;-81
2022/05/15 10:47:17;;;;;;;41.92;15.98;;;17.10;99.90;;;;;;4999981;28;19928;-81
2022/05/15 10:49:55;;;;;;;44.13;16.10;;;17.20;99.90;;;;;;5014482;28;20465;-80
2022/05/15 10:52:25;;;;;;;44.20;16.80;;;17.30;99.90;;;;;;5016308;28;20058;-77
2022/05/15 10:58:13;;;;;;;46.05;16.63;;;17.30;99.90;;;;;;5002911;28;20046;-77
2022/05/15 11:01:06;;;;;;;46.58;18.17;;;17.30;99.90;;;;;;4996750;28;20038;-82
2022/05/15 11:03:55;;;;;;;50.42;19.23;;;17.40;99.90;;;;;;4998090;28;20344;-78
2022/05/15 11:07:08;;;;;;;47.90;19.05;;;17.30;99.90;;;;;;4996248;28;20042;-80
2022/05/15 11:09:43;;;;;;;46.97;19.17;;;17.30;99.90;;;;;;4937659;29;20333;-78
2022/05/15 11:12:58;;;;;;;39.30;18.50;;;17.20;99.90;;;;;;4996443;28;20045;-79
2022/05/15 11:15:41;;;;;;;48.35;18.95;;;17.10;99.90;;;;;;4996918;28;20065;-77
2022/05/15 11:18:11;;;;;;;44.90;19.38;;;17.00;99.90;;;;;;4996494;28;20489;-81
2022/05/15 11:20:45;;;;;;;42.72;18.92;;;17.00;99.90;;;;;;4996876;28;20046;-80
2022/05/15 11:23:27;;;;;;;46.40;20.80;;;16.90;99.90;;;;;;4997456;28;20362;-79
2022/05/15 11:26:08;;;;;;;41.65;20.30;;;16.90;99.90;;;;;;4996037;28;20042;-77
2022/05/15 11:28:39;;;;;;;47.95;19.77;;;16.90;99.90;;;;;;5014855;28;20057;-80
2022/05/15 11:31:15;;;;;;;52.28;20.40;;;16.70;99.90;;;;;;5015749;28;20050;-79
2022/05/15 11:33:54;;;;;;;50.92;21.30;;;16.70;99.90;;;;;;5016969;28;20053;-80
2022/05/15 11:36:21;;;;;;;47.00;21.10;;;16.60;99.90;;;;;;5016876;28;20042;-77
2022/05/15 11:38:55;;;;;;;50.28;21.70;;;16.50;99.90;;;;;;4998252;28;20373;-81
2022/05/15 11:41:34;;;;;;;54.72;23.42;;;16.40;99.90;;;;;;5016259;28;20042;-82
2022/05/15 11:44:07;;;;;;;37.42;15.68;;;16.50;99.90;;;;;;5016284;28;20491;-78
2022/05/15 11:46:47;;;;;;;38.22;13.60;;;16.40;99.90;;;;;;4999194;28;20042;-77
2022/05/15 11:49:31;;;;;;;35.22;14.82;;;16.40;99.90;;;;;;5015508;28;20045;-78
2022/05/15 11:52:08;;;;;;;26.85;12.45;;;16.40;99.90;;;;;;5015175;28;20050;-81
2022/05/15 11:54:48;;;;;;;31.73;12.20;;;16.40;99.90;;;;;;5016137;28;20354;-79
2022/05/15 11:57:39;;;;;;;26.40;12.15;;;16.50;99.90;;;;;;5016305;28;20049;-75
2022/05/15 12:00:19;;;;;;;22.63;9.55;;;16.70;99.90;;;;;;5014726;28;20038;-75
2022/05/15 12:03:29;;;;;;;28.77;9.85;;;16.90;99.90;;;;;;5015726;28;20355;-78
2022/05/15 12:06:06;;;;;;;30.33;9.90;;;17.20;99.90;;;;;;5014583;28;20046;-77
2022/05/15 12:08:37;;;;;;;23.87;7.83;;;17.30;99.90;;;;;;4998820;28;20046;-77
2022/05/15 12:11:31;;;;;;;17.95;7.30;;;17.50;99.90;;;;;;5014690;28;20287;-81
2022/05/15 12:14:22;;;;;;;22.73;7.68;;;17.60;99.90;;;;;;5015228;28;20046;-80
2022/05/15 12:17:23;;;;;;;21.45;8.32;;;17.60;99.90;;;;;;5015530;28;20484;-80
2022/05/15 12:20:07;;;;;;;21.88;8.95;;;17.50;99.90;;;;;;5015312;28;20060;-80
2022/05/15 12:22:41;;;;;;;25.05;8.73;;;17.50;99.90;;;;;;4998683;28;20049;-79
2022/05/15 12:25:14;;;;;;;21.35;8.30;;;17.50;99.90;;;;;;5014265;28;20049;-79
2022/05/15 12:28:50;;;;;;;17.48;7.78;;;17.50;99.90;;;;;;5014705;28;20054;-79
2022/05/15 12:30:47;;;;;;;19.58;7.28;;;17.50;99.90;;;;;;5013052;28;20046;-78
2022/05/15 12:33:39;;;;;;;16.90;7.32;;;17.50;99.90;;;;;;5015031;28;20049;-77
2022/05/15 12:36:19;;;;;;;23.05;8.63;;;17.50;99.90;;;;;;5013905;28;20050;-77
2022/05/15 12:38:52;;;;;;;21.30;8.75;;;17.50;99.90;;;;;;5013678;28;20056;-78
2022/05/15 12:41:24;;;;;;;20.48;9.15;;;17.50;99.90;;;;;;4997855;28;20057;-78
2022/05/15 12:43:53;;;;;;;21.20;9.32;;;17.40;99.90;;;;;;5014594;28;20052;-79
2022/05/15 12:46:29;;;;;;;27.40;9.55;;;17.40;99.90;;;;;;5013360;28;20049;-77
2022/05/15 12:48:58;;;;;;;22.90;10.00;;;17.30;99.90;;;;;;5013258;28;20472;-81
2022/05/15 12:51:29;;;;;;;26.05;9.93;;;17.20;99.90;;;;;;5013998;28;20068;-79
2022/05/15 12:53:58;;;;;;;28.08;11.57;;;17.10;99.90;;;;;;5014910;28;20041;-80
2022/05/15 12:56:35;;;;;;;24.48;11.40;;;17.00;99.90;;;;;;5015387;28;20065;-73
2022/05/15 12:59:18;;;;;;;34.53;12.98;;;17.00;99.90;;;;;;5013467;28;20054;-75
2022/05/15 13:01:47;;;;;;;31.65;13.73;;;17.00;99.90;;;;;;4996902;28;20045;-76
2022/05/15 13:04:23;;;;;;;37.00;16.25;;;16.90;99.90;;;;;;5013652;28;20050;-78
2022/05/15 13:06:54;;;;;;;52.55;23.20;;;16.90;99.90;;;;;;5014931;28;20046;-76
2022/05/15 13:09:27;;;;;;;58.45;28.45;;;16.70;99.90;;;;;;5014477;28;20093;-73
2022/05/15 13:12:00;;;;;;;61.85;27.63;;;16.60;99.90;;;;;;5014347;28;20046;-76
2022/05/15 13:14:47;;;;;;;80.57;29.15;;;16.50;99.90;;;;;;4996536;28;20064;-76
2022/05/15 13:17:32;;;;;;;67.45;31.85;;;16.50;99.90;;;;;;5014941;28;20038;-82
2022/05/15 13:20:10;;;;;;;67.20;32.88;;;16.50;99.90;;;;;;5015069;28;20042;-78
2022/05/15 13:22:38;;;;;;;72.00;36.72;;;16.50;99.90;;;;;;5015277;28;20053;-81
2022/05/15 13:25:35;;;;;;;79.53;35.67;;;16.40;99.90;;;;;;5013826;28;20045;-78
2022/05/15 13:28:04;;;;;;;79.13;38.28;;;16.50;99.90;;;;;;4997535;28;20061;-78